Time;durP1;ratioP1;P1;durP2;ratioP2;P2;SDS_P1;SDS_P2;PMS_P1;PMS_P2;Temp;Humidity;BMP_temperature;BMP_pressure;BME280_temperature;BME280_humidity;BME280_pressure;Samples;Min_cycle;Max_cycle;Signal;HPM_P1;HPM_P2
2023/10/22 00:00:44;;;;;;;7.60;3.30;;;;;;;19.64;62.48;98099.13;5090477;28;20191;-63
2023/10/22 00:03:10;;;;;;;10.23;3.85;;;;;;;19.69;63.02;98120.44;5090797;28;20172;-62
2023/10/22 00:05:35;;;;;;;14.88;4.65;;;;;;;19.77;68.50;98158.97;5090400;28;20215;-61
2023/10/22 00:08:01;;;;;;;11.00;4.88;;;;;;;19.65;70.01;98152.44;5049972;28;20185;-62
2023/10/22 00:10:27;;;;;;;11.90;4.20;;;;;;;19.78;70.58;98174.56;5050053;28;20196;-62
2023/10/22 00:12:53;;;;;;;10.85;4.32;;;;;;;19.75;69.85;98182.78;5049036;28;20692;-63
2023/10/22 00:15:18;;;;;;;10.75;4.18;;;;;;;19.69;70.18;98170.31;5049892;28;20229;-62
2023/10/22 00:17:43;;;;;;;13.75;4.45;;;;;;;19.53;68.19;98135.41;5049876;28;20217;-63
2023/10/22 00:20:09;;;;;;;8.57;3.60;;;;;;;19.62;67.56;98152.75;5049885;28;20682;-63
2023/10/22 00:22:35;;;;;;;16.15;4.47;;;;;;;19.79;66.70;98164.88;5049867;28;20191;-62
2023/10/22 00:25:00;;;;;;;10.70;4.30;;;;;;;19.53;67.00;98140.66;5049791;28;20173;-62
2023/10/22 00:27:26;;;;;;;11.20;5.05;;;;;;;19.70;67.71;98161.44;5044395;28;20693;-62
2023/10/22 00:29:51;;;;;;;12.40;3.95;;;;;;;19.68;68.10;98157.34;5009879;28;20187;-62
2023/10/22 00:32:17;;;;;;;13.15;4.43;;;;;;;19.66;68.07;98160.16;5009949;28;20337;-62
2023/10/22 00:34:43;;;;;;;12.80;3.75;;;;;;;19.61;68.24;98156.38;5009933;28;20190;-62
2023/10/22 00:37:09;;;;;;;14.45;3.75;;;;;;;19.64;68.13;98167.38;5009764;28;20301;-62
2023/10/22 00:39:35;;;;;;;8.82;4.13;;;;;;;19.65;68.21;98169.00;5009787;28;20690;-61
2023/10/22 00:42:01;;;;;;;7.88;3.63;;;;;;;19.56;68.37;98148.19;5009930;28;20182;-62
2023/10/22 00:44:27;;;;;;;15.02;4.68;;;;;;;19.64;68.59;98153.44;5009562;28;20214;-62
2023/10/22 00:46:54;;;;;;;10.75;4.15;;;;;;;19.43;69.58;98130.34;5009716;28;20569;-62
2023/10/22 00:49:20;;;;;;;14.18;4.22;;;;;;;19.53;69.41;98144.09;5009700;28;20202;-62
2023/10/22 00:51:48;;;;;;;11.20;3.83;;;;;;;19.64;69.79;98163.94;5009720;28;20308;-62
2023/10/22 00:54:15;;;;;;;9.02;4.38;;;;;;;19.51;69.64;98146.06;5009659;28;20202;-62
2023/10/22 00:56:44;;;;;;;9.15;3.92;;;;;;;19.51;69.75;98145.25;5009510;28;20218;-63
2023/10/22 00:59:11;;;;;;;11.13;3.85;;;;;;;19.60;70.17;98154.75;5025537;28;20320;-61
2023/10/22 01:01:37;;;;;;;12.82;3.95;;;;;;;19.52;69.87;98146.91;5078229;28;20221;-62
2023/10/22 01:04:04;;;;;;;10.23;3.13;;;;;;;19.53;68.01;98143.28;5089308;28;20211;-61
2023/10/22 01:06:30;;;;;;;8.65;3.10;;;;;;;19.40;62.84;98128.03;5089239;28;20266;-62
2023/10/22 01:08:55;;;;;;;8.18;2.85;;;;;;;19.56;59.00;98137.69;5089206;28;20188;-62
2023/10/22 01:11:21;;;;;;;7.40;2.30;;;;;;;19.52;54.16;98115.41;5089102;28;20182;-62
2023/10/22 01:13:46;;;;;;;7.75;2.60;;;;;;;19.72;52.30;98112.22;5089038;28;20198;-62
2023/10/22 01:16:12;;;;;;;6.18;2.63;;;;;;;19.83;51.71;98117.13;5068479;28;20188;-61
2023/10/22 01:18:37;;;;;;;10.88;2.92;;;;;;;19.95;51.34;98114.94;5068740;28;20220;-62
2023/10/22 01:21:06;;;;;;;6.13;2.70;;;;;;;20.09;51.16;98120.31;5071936;28;20185;-62
2023/10/22 01:23:38;;;;;;;10.68;3.63;;;;;;;20.16;50.77;98123.09;5068209;28;20207;-62
2023/10/22 01:26:07;;;;;;;8.65;2.55;;;;;;;20.13;50.65;98123.41;5028512;28;20561;-63
2023/10/22 01:28:33;;;;;;;7.00;2.42;;;;;;;20.01;50.54;98094.06;5028733;28;20194;-63
2023/10/22 01:31:00;;;;;;;11.95;3.05;;;;;;;20.22;50.85;98167.06;5028416;28;20296;-63
2023/10/22 01:33:26;;;;;;;6.32;3.38;;;;;;;20.02;58.15;98142.16;5028613;28;20192;-63
2023/10/22 01:35:54;;;;;;;7.95;4.20;;;;;;;20.00;62.43;98146.75;5028512;28;20193;-63
2023/10/22 01:38:19;;;;;;;8.63;4.25;;;;;;;20.00;72.07;98158.06;5028495;28;20215;-63
2023/10/22 01:40:45;;;;;;;7.68;3.75;;;;;;;19.86;71.45;98147.44;5028764;28;20269;-63
2023/10/22 01:43:10;;;;;;;13.75;4.13;;;;;;;19.57;71.61;98120.94;5028557;28;20210;-62
2023/10/22 01:45:35;;;;;;;10.68;4.30;;;;;;;19.73;72.46;98150.63;5028343;28;20213;-62
2023/10/22 01:48:01;;;;;;;12.25;3.28;;;;;;;19.52;60.42;98128.53;5028385;28;20217;-62
2023/10/22 01:50:26;;;;;;;8.20;2.83;;;;;;;19.62;55.26;98129.13;5028378;28;20560;-62
2023/10/22 01:52:52;;;;;;;10.80;3.05;;;;;;;19.75;54.71;98139.97;5008590;28;20286;-62
2023/10/22 01:55:17;;;;;;;9.23;2.53;;;;;;;19.82;53.54;98139.09;4966239;28;20670;-62
2023/10/22 01:57:42;;;;;;;7.82;2.58;;;;;;;19.96;52.43;98145.44;4969570;28;20350;-62
2023/10/22 02:00:11;;;;;;;12.10;2.80;;;;;;;20.09;52.07;98151.00;4969719;28;20263;-63
2023/10/22 02:02:38;;;;;;;8.23;3.22;;;;;;;19.95;52.83;98128.88;4984336;28;20202;-63
2023/10/22 02:05:04;;;;;;;7.05;2.38;;;;;;;19.95;52.37;98113.13;4989343;28;20197;-62
2023/10/22 02:07:29;;;;;;;10.88;2.85;;;;;;;20.18;51.75;98135.06;4988987;28;20303;-62
2023/10/22 02:09:55;;;;;;;9.70;2.42;;;;;;;20.02;51.83;98106.19;4989019;28;20187;-63
2023/10/22 02:12:27;;;;;;;11.57;2.80;;;;;;;20.07;51.40;98116.22;4988927;28;20222;-63
2023/10/22 02:14:53;;;;;;;13.43;2.72;;;;;;;20.14;51.46;98122.41;4988854;28;20194;-62
2023/10/22 02:17:18;;;;;;;7.75;2.70;;;;;;;20.15;51.36;98124.06;5004372;28;20216;-62
2023/10/22 02:19:44;;;;;;;10.30;2.65;;;;;;;20.12;51.65;98119.97;5008804;28;20315;-63
2023/10/22 02:22:09;;;;;;;12.02;2.85;;;;;;;20.03;51.93;98110.47;5008473;28;20232;-63
2023/10/22 02:24:35;;;;;;;6.78;2.30;;;;;;;19.99;52.00;98111.78;5020029;28;20682;-63
2023/10/22 02:27:00;;;;;;;9.45;2.63;;;;;;;20.06;51.68;98128.53;5028116;28;20185;-62
2023/10/22 02:29:26;;;;;;;9.15;2.20;;;;;;;19.88;52.18;98095.59;5028077;28;20661;-62
2023/10/22 02:31:51;;;;;;;6.70;2.63;;;;;;;20.13;51.95;98141.81;5036587;28;20191;-62
2023/10/22 02:34:16;;;;;;;12.50;2.47;;;;;;;20.14;51.69;98131.13;5088163;28;20176;-61
2023/10/22 02:36:43;;;;;;;7.25;3.45;;;;;;;20.08;53.78;98133.63;5070329;28;20721;-65
2023/10/22 02:39:11;;;;;;;8.95;4.25;;;;;;;20.17;61.90;98151.00;5071780;28;20224;-63
2023/10/22 02:41:37;;;;;;;14.27;4.00;;;;;;;19.89;62.77;98123.50;5071814;28;20196;-62
2023/10/22 02:44:02;;;;;;;11.75;3.90;;;;;;;19.76;64.24;98112.72;5072017;28;20801;-62
2023/10/22 02:46:28;;;;;;;7.70;3.78;;;;;;;19.83;65.50;98132.88;5071716;28;20189;-62
2023/10/22 02:48:53;;;;;;;16.63;4.53;;;;;;;19.85;66.41;98148.44;5071706;28;20686;-60
2023/10/22 02:51:18;;;;;;;8.57;3.88;;;;;;;19.74;66.76;98146.16;5071622;28;20200;-63
2023/10/22 02:53:44;;;;;;;10.52;3.88;;;;;;;19.79;69.57;98163.06;5071589;28;20173;-62
2023/10/22 02:56:10;;;;;;;9.45;4.35;;;;;;;19.81;73.11;98162.91;5071421;28;20192;-63
2023/10/22 02:58:38;;;;;;;8.13;4.60;;;;;;;19.72;74.46;98156.03;5071524;28;20639;-62
2023/10/22 03:01:08;;;;;;;11.65;4.90;;;;;;;19.43;76.08;98134.78;5071449;28;20184;-62
2023/10/22 03:03:41;;;;;;;14.45;5.10;;;;;;;19.44;77.42;98155.59;5071442;28;20222;-62
2023/10/22 03:06:08;;;;;;;14.65;4.57;;;;;;;19.23;78.85;98126.44;5071385;28;20172;-62
2023/10/22 03:08:35;;;;;;;7.70;4.50;;;;;;;19.37;79.57;98153.81;5073789;28;20180;-61
2023/10/22 03:11:00;;;;;;;12.40;4.43;;;;;;;19.14;80.55;98116.91;5071305;28;20669;-61
2023/10/22 03:13:26;;;;;;;10.30;5.22;;;;;;;19.34;82.07;98151.50;5070969;28;20381;-62
2023/10/22 03:15:51;;;;;;;12.85;4.90;;;;;;;19.25;82.27;98139.38;5071194;28;20177;-61
2023/10/22 03:18:17;;;;;;;10.85;5.00;;;;;;;19.06;82.11;98105.59;5071093;28;20698;-62
2023/10/22 03:20:42;;;;;;;8.07;4.07;;;;;;;19.09;80.82;98115.75;5050836;28;20268;-62
2023/10/22 03:23:08;;;;;;;12.40;4.32;;;;;;;19.17;80.62;98142.78;5030834;28;20652;-62
2023/10/22 03:25:34;;;;;;;15.80;4.50;;;;;;;19.16;80.26;98130.66;5031002;28;20208;-62
2023/10/22 03:28:00;;;;;;;11.65;4.38;;;;;;;19.01;81.25;98100.03;4971991;28;20663;-61
2023/10/22 03:30:26;;;;;;;10.25;4.05;;;;;;;19.13;77.21;98120.50;4972157;28;20231;-61
2023/10/22 03:32:55;;;;;;;8.35;2.88;;;;;;;19.10;69.83;98115.59;4971861;28;20203;-61
2023/10/22 03:35:21;;;;;;;6.05;2.30;;;;;;;18.99;65.65;98091.50;4972070;28;20741;-62
2023/10/22 03:37:47;;;;;;;7.53;3.00;;;;;;;18.99;63.37;98099.34;4971968;28;20234;-63
2023/10/22 03:40:13;;;;;;;12.32;4.30;;;;;;;19.23;72.47;98146.63;4933279;29;20203;-63
2023/10/22 03:42:39;;;;;;;9.23;4.05;;;;;;;19.11;78.81;98127.72;4933403;29;20535;-62
2023/10/22 03:45:06;;;;;;;8.20;4.32;;;;;;;19.17;78.65;98144.63;4933470;29;20916;-61
2023/10/22 03:47:31;;;;;;;6.57;3.70;;;;;;;19.06;77.98;98123.97;4933238;29;20303;-63
2023/10/22 03:49:57;;;;;;;9.18;3.97;;;;;;;19.00;78.81;98135.13;4933305;29;20232;-62
2023/10/22 03:52:22;;;;;;;10.48;4.90;;;;;;;18.96;80.61;98139.88;4937260;28;20201;-62
2023/10/22 03:54:47;;;;;;;11.23;4.60;;;;;;;18.93;83.45;98142.81;4948377;28;20196;-62
2023/10/22 03:57:15;;;;;;;13.70;4.63;;;;;;;18.76;84.63;98122.00;4952490;28;20805;-62
2023/10/22 03:59:40;;;;;;;10.65;4.78;;;;;;;18.70;84.68;98115.59;4967469;28;20184;-62
2023/10/22 04:02:06;;;;;;;12.50;5.28;;;;;;;18.86;85.19;98143.59;4971510;28;20188;-61
2023/10/22 04:04:31;;;;;;;13.25;4.97;;;;;;;18.88;85.87;98146.91;5016929;28;20186;-62
2023/10/22 04:06:57;;;;;;;11.88;4.93;;;;;;;18.75;86.89;98122.97;5030269;28;20719;-65
2023/10/22 04:09:23;;;;;;;12.35;5.43;;;;;;;18.54;89.46;98107.69;5030227;28;20302;-61
2023/10/22 04:11:48;;;;;;;11.73;5.68;;;;;;;18.71;90.16;98134.78;5030209;28;20644;-62
2023/10/22 04:14:14;;;;;;;13.98;6.70;;;;;;;18.79;90.30;98137.38;5030094;28;20197;-62
2023/10/22 04:16:39;;;;;;;9.90;5.50;;;;;;;18.67;90.80;98108.06;5033910;28;20265;-61
2023/10/22 04:19:04;;;;;;;11.57;5.53;;;;;;;18.76;91.45;98122.81;5070019;28;20196;-61
2023/10/22 04:21:30;;;;;;;16.35;6.00;;;;;;;18.76;92.14;98122.00;5070058;28;20733;-61
2023/10/22 04:23:55;;;;;;;15.90;7.20;;;;;;;18.80;93.36;98124.13;5101581;28;20187;-61
2023/10/22 04:26:21;;;;;;;9.82;6.10;;;;;;;18.73;93.11;98106.59;5113202;28;20218;-63
2023/10/22 04:28:47;;;;;;;11.75;5.68;;;;;;;18.62;93.70;98101.66;5112931;28;20307;-62
2023/10/22 04:31:13;;;;;;;14.32;5.63;;;;;;;18.54;94.30;98104.28;5112835;28;20179;-62
2023/10/22 04:33:38;;;;;;;12.65;5.63;;;;;;;18.62;94.41;98117.38;5049577;28;20189;-63
2023/10/22 04:36:04;;;;;;;17.55;6.50;;;;;;;18.62;95.37;98110.34;5049671;28;20186;-63
2023/10/22 04:38:30;;;;;;;14.48;6.18;;;;;;;18.61;95.78;98113.13;5049569;28;20246;-62
2023/10/22 04:40:56;;;;;;;12.25;6.43;;;;;;;18.40;96.08;98089.16;5049616;28;20330;-63
2023/10/22 04:43:22;;;;;;;13.27;5.75;;;;;;;18.29;96.94;98086.81;4990089;28;20281;-62
2023/10/22 04:45:48;;;;;;;17.30;5.50;;;;;;;18.43;96.99;98120.31;4990272;28;20282;-63
2023/10/22 04:48:14;;;;;;;16.65;6.75;;;;;;;18.33;97.28;98109.97;4990212;28;20199;-63
2023/10/22 04:50:41;;;;;;;14.93;6.13;;;;;;;18.24;97.38;98113.50;4990300;28;20198;-62
2023/10/22 04:53:06;;;;;;;10.60;5.80;;;;;;;18.40;97.66;98131.09;4989460;28;20566;-62
2023/10/22 04:55:32;;;;;;;14.45;6.25;;;;;;;18.18;97.46;98079.31;4990282;28;20175;-62
2023/10/22 04:57:57;;;;;;;13.85;5.80;;;;;;;18.43;97.57;98130.78;4989717;28;20211;-63
2023/10/22 05:00:22;;;;;;;12.43;5.97;;;;;;;18.23;97.80;98100.56;4990247;28;20665;-62
2023/10/22 05:02:48;;;;;;;14.38;5.95;;;;;;;18.08;99.42;98104.78;4990053;28;20190;-62
2023/10/22 05:05:13;;;;;;;9.68;6.07;;;;;;;18.10;100.00;98095.81;5034103;28;20215;-62
2023/10/22 05:07:39;;;;;;;24.52;6.90;;;;;;;18.11;100.00;98114.94;5049264;28;20609;-62
2023/10/22 05:10:05;;;;;;;18.52;6.95;;;;;;;18.15;100.00;98126.75;5049087;28;20372;-62
2023/10/22 05:12:30;;;;;;;15.48;6.10;;;;;;;18.20;100.00;98140.19;5049057;28;20256;-63
2023/10/22 05:14:55;;;;;;;14.60;5.97;;;;;;;18.14;100.00;98135.59;5095476;28;20203;-63
2023/10/22 05:17:24;;;;;;;13.60;6.43;;;;;;;18.05;100.00;98137.34;5111658;28;20637;-64
2023/10/22 05:19:49;;;;;;;11.00;6.00;;;;;;;18.21;100.00;98175.88;5111994;28;20172;-62
2023/10/22 05:22:17;;;;;;;13.90;5.88;;;;;;;18.16;100.00;98159.81;5111536;28;20702;-62
2023/10/22 05:24:46;;;;;;;9.32;5.93;;;;;;;18.17;100.00;98157.03;5111751;28;20175;-62
2023/10/22 05:27:12;;;;;;;14.68;6.35;;;;;;;18.26;100.00;98181.44;5111747;28;20167;-62
2023/10/22 05:29:38;;;;;;;11.82;6.10;;;;;;;18.25;100.00;98179.81;5111808;28;20175;-62
2023/10/22 05:32:04;;;;;;;8.07;5.93;;;;;;;18.14;100.00;98169.63;5111735;28;20167;-62
2023/10/22 05:34:29;;;;;;;12.38;6.18;;;;;;;18.10;100.00;98165.66;5111693;28;20228;-64
2023/10/22 05:36:54;;;;;;;14.35;6.25;;;;;;;18.08;100.00;98154.53;5111539;28;20195;-62
2023/10/22 05:39:20;;;;;;;16.33;7.28;;;;;;;17.87;100.00;98131.38;5111518;28;20175;-62
2023/10/22 05:41:45;;;;;;;15.60;7.57;;;;;;;18.16;100.00;98158.00;5111465;28;20175;-62
2023/10/22 05:44:10;;;;;;;17.10;6.72;;;;;;;18.10;100.00;98149.97;5111441;28;20167;-62
2023/10/22 05:46:36;;;;;;;14.15;7.78;;;;;;;18.02;100.00;98142.88;5111543;28;20175;-62
2023/10/22 05:49:03;;;;;;;11.90;7.60;;;;;;;17.90;100.00;98119.78;5111164;28;20618;-63
2023/10/22 05:51:29;;;;;;;15.80;7.10;;;;;;;18.17;100.00;98191.06;5111482;28;20191;-63
2023/10/22 05:53:54;;;;;;;17.38;7.65;;;;;;;18.09;100.00;98225.09;5111511;28;20218;-63
2023/10/22 05:56:23;;;;;;;9.27;5.95;;;;;;;18.11;100.00;98244.09;5111390;28;20257;-63
2023/10/22 05:58:49;;;;;;;18.20;6.68;;;;;;;18.21;100.00;98272.78;5111284;28;20294;-62
2023/10/22 06:01:14;;;;;;;11.77;5.97;;;;;;;18.09;100.00;98243.44;5088298;28;20271;-62
2023/10/22 06:03:40;;;;;;;11.07;5.75;;;;;;;17.78;100.00;98197.75;5088450;28;20192;-62
2023/10/22 06:06:05;;;;;;;9.35;6.32;;;;;;;18.06;100.00;98237.66;5028156;28;20186;-63
2023/10/22 06:08:31;;;;;;;14.68;6.78;;;;;;;18.06;100.00;98242.88;5028402;28;20186;-62
2023/10/22 06:10:56;;;;;;;14.70;6.13;;;;;;;17.91;100.00;98233.97;5030075;28;20272;-63
2023/10/22 06:13:22;;;;;;;6.78;5.10;;;;;;;17.93;100.00;98209.28;5032437;28;20727;-63
2023/10/22 06:15:47;;;;;;;11.05;5.78;;;;;;;17.95;100.00;98219.63;5032430;28;20690;-62
2023/10/22 06:18:13;;;;;;;13.00;5.38;;;;;;;17.83;100.00;98197.31;5032322;28;20209;-62
2023/10/22 06:20:39;;;;;;;16.15;6.90;;;;;;;17.90;100.00;98198.31;5032309;28;20228;-62
2023/10/22 06:23:05;;;;;;;13.77;5.78;;;;;;;17.92;100.00;98188.50;5012374;28;20202;-63
2023/10/22 06:25:34;;;;;;;8.23;5.28;;;;;;;17.98;100.00;98193.09;5012548;28;20277;-63
2023/10/22 06:28:00;;;;;;;12.95;6.65;;;;;;;17.87;100.00;98180.28;5012440;28;20187;-63
2023/10/22 06:30:27;;;;;;;10.68;5.65;;;;;;;18.01;100.00;98205.91;5012430;28;20183;-63
2023/10/22 06:32:54;;;;;;;12.00;6.22;;;;;;;18.04;100.00;98198.56;5027546;28;20227;-63
2023/10/22 06:35:20;;;;;;;15.10;8.02;;;;;;;18.14;100.00;98208.91;5012093;28;20198;-62
2023/10/22 06:37:50;;;;;;;18.38;8.35;;;;;;;17.97;100.00;98160.06;5027428;28;20247;-63
2023/10/22 06:40:16;;;;;;;16.38;8.40;;;;;;;18.11;100.00;98172.53;5012047;28;20201;-62
2023/10/22 06:42:42;;;;;;;17.67;8.45;;;;;;;18.15;100.00;98179.13;5011906;28;20190;-62
2023/10/22 06:45:08;;;;;;;13.27;7.50;;;;;;;18.12;100.00;98176.81;5012128;28;20178;-62
2023/10/22 06:47:37;;;;;;;17.38;8.50;;;;;;;18.32;100.00;98196.56;5011920;28;20395;-63
2023/10/22 06:50:11;;;;;;;13.75;7.70;;;;;;;18.22;100.00;98172.25;5012027;28;20190;-62
2023/10/22 06:52:38;;;;;;;13.93;7.97;;;;;;;18.37;100.00;98194.31;5011855;28;20217;-62
2023/10/22 06:55:05;;;;;;;15.85;7.28;;;;;;;18.38;100.00;98191.53;5011818;28;20182;-62
2023/10/22 06:57:30;;;;;;;17.75;7.25;;;;;;;18.30;100.00;98156.59;5011742;28;20210;-62
2023/10/22 06:59:57;;;;;;;14.52;7.10;;;;;;;18.45;100.00;98178.59;5011816;28;20197;-62
2023/10/22 07:02:24;;;;;;;16.10;7.38;;;;;;;18.43;100.00;98165.66;5011673;28;20225;-63
2023/10/22 07:04:55;;;;;;;16.23;7.85;;;;;;;18.57;100.00;98178.16;5011774;28;20179;-63
2023/10/22 07:07:21;;;;;;;15.40;8.00;;;;;;;18.67;100.00;98191.94;5011615;28;20195;-63
2023/10/22 07:09:47;;;;;;;21.90;7.65;;;;;;;18.68;100.00;98203.22;5011722;28;20244;-63
2023/10/22 07:12:14;;;;;;;15.35;7.85;;;;;;;18.63;100.00;98189.78;5034443;28;20275;-63
2023/10/22 07:14:39;;;;;;;17.00;7.65;;;;;;;18.77;99.94;98221.44;5068979;28;20201;-63
2023/10/22 07:17:04;;;;;;;13.65;7.68;;;;;;;18.72;100.00;98221.09;5031048;28;20221;-63
2023/10/22 07:19:30;;;;;;;15.30;7.38;;;;;;;18.72;99.73;98223.69;5031351;28;20186;-63
2023/10/22 07:21:56;;;;;;;23.88;9.07;;;;;;;18.89;98.91;98264.72;5030947;28;20225;-63
2023/10/22 07:24:21;;;;;;;17.25;8.20;;;;;;;18.91;97.99;98270.63;5063315;28;20184;-63
2023/10/22 07:26:47;;;;;;;17.95;8.35;;;;;;;18.54;98.68;98222.19;5071091;28;20259;-63
2023/10/22 07:29:12;;;;;;;15.68;7.97;;;;;;;18.68;98.49;98255.66;5030828;28;20264;-62
2023/10/22 07:31:39;;;;;;;16.17;8.13;;;;;;;18.52;99.93;98230.22;5031005;28;20285;-63
2023/10/22 07:34:04;;;;;;;16.52;8.07;;;;;;;18.56;100.00;98246.44;5030918;28;20190;-63
2023/10/22 07:36:30;;;;;;;18.17;8.15;;;;;;;18.47;100.00;98221.19;5031016;28;20197;-63
2023/10/22 07:38:55;;;;;;;21.08;8.43;;;;;;;18.54;100.00;98235.31;5030886;28;20213;-63
2023/10/22 07:41:20;;;;;;;19.83;8.02;;;;;;;18.65;100.00;98240.25;5031015;28;20194;-63
2023/10/22 07:43:46;;;;;;;14.55;7.20;;;;;;;18.68;99.96;98234.69;5030943;28;20771;-62
2023/10/22 07:46:14;;;;;;;12.10;6.82;;;;;;;18.92;99.55;98250.47;5030823;28;20280;-62
2023/10/22 07:48:40;;;;;;;13.70;7.20;;;;;;;18.87;98.38;98221.28;5045734;28;20217;-62
2023/10/22 07:51:12;;;;;;;17.67;7.13;;;;;;;19.12;96.01;98233.47;5050696;28;20645;-61
2023/10/22 07:53:38;;;;;;;18.02;7.28;;;;;;;19.03;96.33;98213.44;5050507;28;20641;-62
2023/10/22 07:56:05;;;;;;;17.20;7.55;;;;;;;19.11;96.60;98226.59;5050801;28;20181;-62
2023/10/22 07:58:31;;;;;;;15.85;7.15;;;;;;;18.99;97.24;98199.84;5050472;28;20765;-62
2023/10/22 08:00:56;;;;;;;12.23;6.93;;;;;;;19.22;98.02;98231.53;5050508;28;20185;-63
2023/10/22 08:03:21;;;;;;;11.80;7.82;;;;;;;19.29;97.97;98235.16;5050336;28;20173;-63
2023/10/22 08:05:47;;;;;;;14.35;7.28;;;;;;;19.31;98.05;98226.13;5059892;28;20260;-63
2023/10/22 08:08:12;;;;;;;12.18;7.63;;;;;;;19.41;97.58;98220.72;5050246;28;20193;-63
2023/10/22 08:10:37;;;;;;;18.67;7.93;;;;;;;19.50;96.90;98214.47;5050422;28;20189;-63
2023/10/22 08:13:03;;;;;;;14.98;7.80;;;;;;;19.55;96.87;98205.13;5050365;28;20272;-63
2023/10/22 08:15:28;;;;;;;11.70;7.15;;;;;;;19.74;97.46;98220.53;5050338;28;20181;-63
2023/10/22 08:17:53;;;;;;;17.25;8.82;;;;;;;19.93;97.00;98241.16;4990669;28;20309;-63
2023/10/22 08:20:19;;;;;;;15.50;8.57;;;;;;;19.98;96.36;98232.75;4990821;28;20621;-64
2023/10/22 08:22:44;;;;;;;15.32;8.63;;;;;;;19.97;94.90;98204.88;4990824;28;20238;-64
2023/10/22 08:25:10;;;;;;;15.38;8.05;;;;;;;20.11;94.42;98222.59;4951867;28;20215;-64
2023/10/22 08:27:35;;;;;;;20.70;7.65;;;;;;;20.16;95.25;98251.81;4952236;28;20220;-62
2023/10/22 08:30:00;;;;;;;17.45;8.50;;;;;;;20.22;94.61;98240.63;4951995;28;20597;-62
2023/10/22 08:32:26;;;;;;;16.45;8.75;;;;;;;19.87;95.24;98220.81;4932422;29;20193;-63
2023/10/22 08:34:51;;;;;;;18.02;8.65;;;;;;;20.17;95.86;98248.19;4931867;29;20707;-63
2023/10/22 08:37:17;;;;;;;17.17;7.85;;;;;;;20.27;95.57;98246.19;4932594;29;20213;-63
2023/10/22 08:39:42;;;;;;;20.77;8.23;;;;;;;20.37;95.24;98242.38;4959898;28;20188;-65
2023/10/22 08:42:16;;;;;;;15.80;8.23;;;;;;;20.18;95.21;98197.28;4971079;28;20191;-63
2023/10/22 08:44:48;;;;;;;17.48;9.02;;;;;;;20.34;94.06;98239.28;4970976;28;20323;-63
2023/10/22 08:47:13;;;;;;;14.70;8.50;;;;;;;20.17;94.53;98222.72;4970989;28;20184;-63
2023/10/22 08:49:40;;;;;;;16.15;8.13;;;;;;;20.30;94.72;98232.72;5018578;28;20213;-62
2023/10/22 08:52:07;;;;;;;13.65;8.18;;;;;;;20.41;95.41;98256.00;5009533;28;20202;-62
2023/10/22 08:54:33;;;;;;;12.73;7.60;;;;;;;20.56;94.68;98267.44;5009828;28;20800;-63
2023/10/22 08:56:59;;;;;;;13.48;7.28;;;;;;;20.60;94.24;98264.31;5043040;28;20205;-63
2023/10/22 08:59:26;;;;;;;14.15;7.10;;;;;;;20.57;92.99;98245.44;5049338;28;20271;-64
2023/10/22 09:01:52;;;;;;;10.88;6.63;;;;;;;20.47;93.01;98223.78;5049340;28;20282;-63
2023/10/22 09:04:18;;;;;;;17.65;7.85;;;;;;;20.72;91.97;98264.72;5049188;28;20193;-64
2023/10/22 09:06:43;;;;;;;13.10;7.22;;;;;;;20.67;91.69;98240.75;5049207;28;20196;-63
2023/10/22 09:09:17;;;;;;;15.90;7.20;;;;;;;20.77;91.87;98257.16;5053185;28;20199;-64
2023/10/22 09:11:54;;;;;;;14.02;7.35;;;;;;;20.57;91.63;98214.69;5049103;28;20684;-63
2023/10/22 09:14:23;;;;;;;15.40;7.22;;;;;;;20.79;91.51;98234.13;5028947;28;20210;-63
2023/10/22 09:16:49;;;;;;;15.93;7.72;;;;;;;20.83;91.51;98220.47;5029025;28;20190;-63
2023/10/22 09:19:34;;;;;;;16.70;8.40;;;;;;;20.88;91.16;98217.31;5029082;28;20334;-64
2023/10/22 09:21:59;;;;;;;13.50;7.95;;;;;;;20.41;93.00;98191.09;5030172;28;20267;-64
2023/10/22 09:24:24;;;;;;;12.57;7.03;;;;;;;20.60;91.66;98193.31;5048951;28;20223;-63
2023/10/22 09:26:50;;;;;;;14.85;7.78;;;;;;;20.44;92.59;98168.91;5048964;28;20181;-63
2023/10/22 09:29:16;;;;;;;18.00;8.00;;;;;;;20.54;93.47;98185.28;5048797;28;20196;-64
2023/10/22 09:31:51;;;;;;;13.95;7.97;;;;;;;20.46;94.23;98190.59;5049047;28;20181;-63
2023/10/22 09:34:27;;;;;;;20.88;8.32;;;;;;;20.50;94.39;98181.38;5048742;28;20196;-63
2023/10/22 09:36:56;;;;;;;12.73;7.65;;;;;;;20.35;95.02;98159.44;5048677;28;20200;-63
2023/10/22 09:39:37;;;;;;;15.15;7.53;;;;;;;20.52;94.02;98174.13;5048641;28;20204;-64
2023/10/22 09:42:04;;;;;;;18.45;7.95;;;;;;;20.48;94.42;98151.81;5028586;28;20185;-63
2023/10/22 09:44:33;;;;;;;13.07;8.00;;;;;;;20.59;93.81;98175.09;5028583;28;20186;-63
2023/10/22 09:47:01;;;;;;;16.13;7.93;;;;;;;20.49;93.59;98142.94;5028643;28;20189;-63
2023/10/22 09:49:29;;;;;;;18.55;8.57;;;;;;;20.40;93.94;98128.22;5053330;28;20189;-63
2023/10/22 09:51:58;;;;;;;15.35;8.18;;;;;;;20.71;91.66;98157.91;5068622;28;20180;-63
2023/10/22 09:54:34;;;;;;;18.92;8.63;;;;;;;20.57;91.46;98135.00;5068875;28;20613;-63
2023/10/22 09:57:08;;;;;;;16.67;8.27;;;;;;;20.63;89.34;98129.06;5068460;28;20180;-63
2023/10/22 09:59:34;;;;;;;21.70;7.53;;;;;;;20.59;87.58;98111.97;5068513;28;20298;-64
2023/10/22 10:02:01;;;;;;;11.80;6.80;;;;;;;20.83;87.14;98135.47;5068499;28;20199;-63
2023/10/22 10:04:26;;;;;;;14.10;6.78;;;;;;;20.71;87.96;98129.00;5068425;28;20642;-63
2023/10/22 10:06:55;;;;;;;14.13;6.85;;;;;;;20.54;88.64;98098.53;5068375;28;20363;-63
2023/10/22 10:09:23;;;;;;;14.10;6.95;;;;;;;20.64;89.26;98114.91;5068415;28;20212;-64
2023/10/22 10:11:50;;;;;;;16.77;8.40;;;;;;;20.76;88.69;98119.56;5068373;28;20593;-63
2023/10/22 10:14:33;;;;;;;12.60;7.05;;;;;;;20.90;88.98;98141.69;5068108;28;20196;-63
2023/10/22 10:17:01;;;;;;;18.45;7.85;;;;;;;20.70;88.92;98108.94;5068182;28;20172;-63
2023/10/22 10:19:27;;;;;;;15.15;7.80;;;;;;;20.79;88.05;98113.13;5089163;28;20625;-62
2023/10/22 10:21:53;;;;;;;14.23;7.80;;;;;;;21.07;87.14;98143.22;5111236;28;20177;-63
2023/10/22 10:24:22;;;;;;;13.13;7.50;;;;;;;21.15;87.16;98140.53;5111290;28;20171;-63
2023/10/22 10:26:50;;;;;;;13.45;7.55;;;;;;;21.07;87.71;98122.16;5111292;28;20182;-63
2023/10/22 10:29:21;;;;;;;17.30;7.28;;;;;;;21.16;87.41;98123.75;5111197;28;20181;-63
2023/10/22 10:31:47;;;;;;;22.08;7.82;;;;;;;21.06;87.01;98102.94;5047894;28;20190;-62
2023/10/22 10:34:36;;;;;;;17.67;7.47;;;;;;;21.29;86.49;98131.84;5048021;28;20740;-63
2023/10/22 10:37:10;;;;;;;12.85;6.75;;;;;;;21.37;85.93;98140.47;5048001;28;20192;-62
2023/10/22 10:39:37;;;;;;;14.32;7.40;;;;;;;21.45;85.40;98132.50;5048078;28;20271;-63
2023/10/22 10:42:03;;;;;;;15.90;7.15;;;;;;;21.32;84.25;98095.44;5047942;28;20192;-63
2023/10/22 10:44:29;;;;;;;18.70;7.43;;;;;;;21.61;84.38;98123.63;5047924;28;20570;-63
2023/10/22 10:47:15;;;;;;;12.38;7.03;;;;;;;21.65;84.08;98117.00;5047960;28;20686;-64
2023/10/22 10:50:08;;;;;;;19.73;7.82;;;;;;;21.74;83.03;98131.75;5047701;28;20193;-63
2023/10/22 10:52:42;;;;;;;14.88;7.40;;;;;;;21.79;83.33;98122.28;5048013;28;20174;-62
2023/10/22 10:55:07;;;;;;;15.45;7.38;;;;;;;21.86;83.09;98125.81;5047848;28;20181;-64
2023/10/22 10:57:37;;;;;;;12.52;7.53;;;;;;;21.76;83.25;98096.31;5050057;28;20258;-63
2023/10/22 11:00:05;;;;;;;13.30;7.20;;;;;;;22.01;82.93;98112.63;5051634;28;20177;-64
2023/10/22 11:02:45;;;;;;;16.50;7.60;;;;;;;21.95;81.52;98066.78;5051569;28;20189;-63
2023/10/22 11:05:12;;;;;;;12.55;7.40;;;;;;;22.20;81.89;98075.19;5051586;28;20181;-62
2023/10/22 11:07:38;;;;;;;18.52;7.13;;;;;;;22.22;81.50;98055.56;5031376;28;20282;-63
2023/10/22 11:10:10;;;;;;;15.77;7.57;;;;;;;22.49;80.88;98080.41;4991949;28;20258;-62
2023/10/22 11:12:40;;;;;;;15.43;7.43;;;;;;;22.33;80.86;98041.06;4992141;28;20199;-63
2023/10/22 11:15:08;;;;;;;13.75;7.75;;;;;;;22.55;79.65;98069.09;4952966;28;20243;-63
2023/10/22 11:17:34;;;;;;;19.50;7.10;;;;;;;22.57;79.74;98061.81;4953237;28;20216;-63
2023/10/22 11:19:59;;;;;;;18.77;7.30;;;;;;;22.64;79.78;98062.69;4953197;28;20199;-64
2023/10/22 11:22:24;;;;;;;16.23;7.53;;;;;;;22.70;80.45;98064.56;4953097;28;20215;-63